GLO1373 SBBR-SBFZ
Flight info
| Callsign | GLO1373 |
|---|---|
| Flight time | N/A |
| Altitude | 39000 |
| Route | EPDEP UZ60 DOTKU |
| Aircraft | B738/M-SDFGIKLORWXY/LB1 |
Departure
| Time | 2026-05-08 00:55 |
|---|---|
| Airport | Presidente Juscelino Kubitschek International Airport (SBBR) |
Arrival
| Time | N/A |
|---|---|
| Airport | Pinto Martins International Airport (SBFZ) |
| Time | Latitude | Longitude | Altitude | Speed | Heading |
|---|---|---|---|---|---|
| 2026-05-08 00:37 | -15.86712 | -47.91892 | 3463 ft | 0 kts | 176° |
| 2026-05-08 00:45 | -15.86701 | -47.91892 | 3462 ft | 2 kts | 176° |
| 2026-05-08 00:45 | -15.86684 | -47.91893 | 3461 ft | 2 kts | 177° |
| 2026-05-08 00:46 | -15.86668 | -47.91894 | 3463 ft | 2 kts | 178° |
| 2026-05-08 00:46 | -15.86652 | -47.91894 | 3463 ft | 2 kts | 181° |
| 2026-05-08 00:46 | -15.86635 | -47.91893 | 3461 ft | 2 kts | 188° |
| 2026-05-08 00:46 | -15.86619 | -47.91888 | 3462 ft | 2 kts | 232° |
| 2026-05-08 00:47 | -15.86615 | -47.91880 | 3461 ft | 1 kts | 262° |
| 2026-05-08 00:47 | -15.86615 | -47.91877 | 3461 ft | 0 kts | 264° |
| 2026-05-08 00:49 | -15.86616 | -47.91883 | 3463 ft | 3 kts | 264° |
| 2026-05-08 00:49 | -15.86620 | -47.91935 | 3463 ft | 10 kts | 266° |
| 2026-05-08 00:49 | -15.86625 | -47.92013 | 3461 ft | 11 kts | 266° |
| 2026-05-08 00:50 | -15.86629 | -47.92089 | 3463 ft | 10 kts | 265° |
| 2026-05-08 00:50 | -15.86631 | -47.92163 | 3463 ft | 10 kts | 278° |
| 2026-05-08 00:50 | -15.86604 | -47.92230 | 3461 ft | 10 kts | 296° |
| 2026-05-08 00:50 | -15.86571 | -47.92293 | 3460 ft | 10 kts | 306° |
| 2026-05-08 00:51 | -15.86537 | -47.92353 | 3460 ft | 10 kts | 291° |
| 2026-05-08 00:51 | -15.86529 | -47.92420 | 3460 ft | 9 kts | 267° |
| 2026-05-08 00:51 | -15.86532 | -47.92486 | 3461 ft | 9 kts | 267° |
| 2026-05-08 00:51 | -15.86536 | -47.92550 | 3461 ft | 9 kts | 265° |
| 2026-05-08 00:52 | -15.86541 | -47.92612 | 3460 ft | 9 kts | 266° |
| 2026-05-08 00:52 | -15.86545 | -47.92673 | 3460 ft | 8 kts | 266° |
| 2026-05-08 00:52 | -15.86546 | -47.92731 | 3460 ft | 8 kts | 279° |
| 2026-05-08 00:52 | -15.86508 | -47.92767 | 3460 ft | 8 kts | 355° |
| 2026-05-08 00:53 | -15.86455 | -47.92768 | 3460 ft | 8 kts | 358° |
| 2026-05-08 00:53 | -15.86407 | -47.92752 | 3459 ft | 7 kts | 37° |
| 2026-05-08 00:53 | -15.86361 | -47.92733 | 3459 ft | 7 kts | 43° |
| 2026-05-08 00:53 | -15.86354 | -47.92704 | 3459 ft | 0 kts | 85° |
| 2026-05-08 00:54 | -15.86353 | -47.92682 | 3459 ft | 18 kts | 86° |
| 2026-05-08 00:54 | -15.86328 | -47.92296 | 3465 ft | 87 kts | 86° |
| 2026-05-08 00:54 | -15.86274 | -47.91462 | 3463 ft | 146 kts | 86° |
| 2026-05-08 00:55 | -15.86204 | -47.90237 | 3546 ft | 188 kts | 86° |
| 2026-05-08 00:55 | -15.86118 | -47.88848 | 4255 ft | 197 kts | 85° |
| 2026-05-08 00:55 | -15.86017 | -47.87403 | 4834 ft | 208 kts | 84° |
| 2026-05-08 00:55 | -15.85897 | -47.85813 | 5053 ft | 231 kts | 84° |
| 2026-05-08 00:56 | -15.85781 | -47.84092 | 5367 ft | 247 kts | 85° |
| 2026-05-08 00:56 | -15.85664 | -47.82191 | 5570 ft | 273 kts | 85° |
| 2026-05-08 00:56 | -15.85540 | -47.80231 | 6486 ft | 271 kts | 83° |
| 2026-05-08 00:56 | -15.85007 | -47.78372 | 7201 ft | 272 kts | 59° |
| 2026-05-08 00:57 | -15.83805 | -47.76865 | 7936 ft | 273 kts | 38° |
| 2026-05-08 00:57 | -15.82204 | -47.75800 | 8720 ft | 274 kts | 28° |
| 2026-05-08 00:57 | -15.80419 | -47.75104 | 9441 ft | 278 kts | 4° |
| 2026-05-08 00:57 | -15.78532 | -47.75435 | 9964 ft | 280 kts | 338° |
| 2026-05-08 00:58 | -15.76765 | -47.76336 | 10024 ft | 286 kts | 333° |
| 2026-05-08 00:58 | -15.75014 | -47.77301 | 10051 ft | 284 kts | 334° |
| 2026-05-08 00:58 | -15.73256 | -47.78218 | 10055 ft | 281 kts | 335° |
| 2026-05-08 00:58 | -15.71493 | -47.79101 | 10069 ft | 282 kts | 336° |
| 2026-05-08 00:59 | -15.69692 | -47.79924 | 10043 ft | 283 kts | 346° |
| 2026-05-08 00:59 | -15.67775 | -47.80052 | 10063 ft | 282 kts | 10° |
| 2026-05-08 00:59 | -15.65906 | -47.79363 | 10129 ft | 295 kts | 31° |
| 2026-05-08 00:59 | -15.64210 | -47.78034 | 10321 ft | 318 kts | 39° |
| 2026-05-08 01:00 | -15.62497 | -47.76501 | 10756 ft | 329 kts | 40° |
| 2026-05-08 01:00 | -15.60770 | -47.74912 | 11364 ft | 334 kts | 40° |
| 2026-05-08 01:00 | -15.59021 | -47.73299 | 12009 ft | 338 kts | 40° |
| 2026-05-08 01:00 | -15.57240 | -47.71663 | 12657 ft | 343 kts | 40° |
| 2026-05-08 01:01 | -15.55446 | -47.70026 | 13277 ft | 347 kts | 40° |
| 2026-05-08 01:01 | -15.53613 | -47.68362 | 13898 ft | 351 kts | 40° |
| 2026-05-08 01:01 | -15.51764 | -47.66688 | 14415 ft | 355 kts | 40° |
| 2026-05-08 01:01 | -15.49892 | -47.64999 | 14967 ft | 359 kts | 40° |
| 2026-05-08 01:02 | -15.47999 | -47.63292 | 15482 ft | 362 kts | 41° |
| 2026-05-08 01:02 | -15.46079 | -47.61564 | 16009 ft | 366 kts | 41° |
| 2026-05-08 01:02 | -15.44144 | -47.59823 | 16529 ft | 370 kts | 41° |
| 2026-05-08 01:02 | -15.42190 | -47.58066 | 17039 ft | 374 kts | 41° |
| 2026-05-08 01:03 | -15.40215 | -47.56290 | 17552 ft | 377 kts | 42° |
| 2026-05-08 01:03 | -15.38218 | -47.54496 | 18046 ft | 381 kts | 42° |
| 2026-05-08 01:03 | -15.36206 | -47.52687 | 18498 ft | 385 kts | 42° |
| 2026-05-08 01:03 | -15.34176 | -47.50864 | 18935 ft | 388 kts | 42° |
| 2026-05-08 01:04 | -15.32153 | -47.49048 | 19371 ft | 390 kts | 42° |
| 2026-05-08 01:04 | -15.30090 | -47.47197 | 19814 ft | 393 kts | 43° |
| 2026-05-08 01:04 | -15.28015 | -47.45334 | 20242 ft | 396 kts | 43° |
| 2026-05-08 01:04 | -15.25922 | -47.43457 | 20664 ft | 399 kts | 43° |
| 2026-05-08 01:05 | -15.23820 | -47.41571 | 21083 ft | 402 kts | 43° |
| 2026-05-08 01:05 | -15.21696 | -47.39667 | 21497 ft | 405 kts | 43° |
| 2026-05-08 01:05 | -15.19554 | -47.37746 | 21909 ft | 408 kts | 43° |
| 2026-05-08 01:05 | -15.17400 | -47.35817 | 22316 ft | 411 kts | 43° |
| 2026-05-08 01:06 | -15.15233 | -47.33876 | 22714 ft | 413 kts | 43° |
| 2026-05-08 01:06 | -15.13055 | -47.31925 | 23116 ft | 416 kts | 43° |
| 2026-05-08 01:06 | -15.10856 | -47.29956 | 23491 ft | 419 kts | 43° |
| 2026-05-08 01:06 | -15.08667 | -47.27996 | 23820 ft | 421 kts | 43° |
| 2026-05-08 01:07 | -15.06441 | -47.26004 | 24133 ft | 424 kts | 43° |
| 2026-05-08 01:07 | -15.04199 | -47.23998 | 24442 ft | 427 kts | 43° |
| 2026-05-08 01:07 | -15.01949 | -47.21987 | 24745 ft | 429 kts | 43° |
| 2026-05-08 01:07 | -14.99678 | -47.19956 | 25050 ft | 432 kts | 43° |
| 2026-05-08 01:08 | -14.97405 | -47.17925 | 25356 ft | 434 kts | 43° |
| 2026-05-08 01:08 | -14.95109 | -47.15872 | 25655 ft | 437 kts | 43° |
| 2026-05-08 01:08 | -14.92796 | -47.13807 | 25948 ft | 440 kts | 43° |
| 2026-05-08 01:08 | -14.90467 | -47.11727 | 26236 ft | 442 kts | 43° |
| 2026-05-08 01:09 | -14.88129 | -47.09639 | 26523 ft | 445 kts | 43° |
| 2026-05-08 01:09 | -14.85807 | -47.07566 | 26806 ft | 447 kts | 43° |
| 2026-05-08 01:09 | -14.83446 | -47.05459 | 27093 ft | 450 kts | 43° |
| 2026-05-08 01:09 | -14.81066 | -47.03336 | 27369 ft | 452 kts | 42° |
| 2026-05-08 01:10 | -14.78676 | -47.01204 | 27643 ft | 455 kts | 42° |
| 2026-05-08 01:10 | -14.76247 | -46.99087 | 27904 ft | 458 kts | 40° |
| 2026-05-08 01:10 | -14.73729 | -46.97045 | 28161 ft | 461 kts | 39° |
| 2026-05-08 01:10 | -14.71169 | -46.95031 | 28421 ft | 463 kts | 38° |
| 2026-05-08 01:11 | -14.68593 | -46.93013 | 28685 ft | 465 kts | 38° |
| 2026-05-08 01:11 | -14.66016 | -46.90979 | 28934 ft | 468 kts | 39° |
| 2026-05-08 01:11 | -14.63429 | -46.88919 | 29185 ft | 470 kts | 39° |
| 2026-05-08 01:11 | -14.60858 | -46.86862 | 29406 ft | 472 kts | 39° |
| 2026-05-08 01:12 | -14.58260 | -46.84777 | 29656 ft | 475 kts | 39° |
| 2026-05-08 01:12 | -14.55647 | -46.82681 | 29892 ft | 477 kts | 39° |
| 2026-05-08 01:12 | -14.53024 | -46.80581 | 30112 ft | 479 kts | 39° |
| 2026-05-08 01:12 | -14.50376 | -46.78460 | 30303 ft | 481 kts | 39° |
| 2026-05-08 01:13 | -14.47722 | -46.76333 | 30504 ft | 483 kts | 39° |
| 2026-05-08 01:13 | -14.45056 | -46.74197 | 30696 ft | 485 kts | 39° |
| 2026-05-08 01:13 | -14.42416 | -46.72082 | 30881 ft | 487 kts | 39° |
| 2026-05-08 01:13 | -14.39735 | -46.69934 | 31076 ft | 489 kts | 39° |
| 2026-05-08 01:14 | -14.37042 | -46.67777 | 31309 ft | 489 kts | 39° |
| 2026-05-08 01:14 | -14.34350 | -46.65621 | 31585 ft | 489 kts | 39° |
| 2026-05-08 01:14 | -14.31649 | -46.63460 | 31862 ft | 489 kts | 39° |
| 2026-05-08 01:14 | -14.28963 | -46.61310 | 32108 ft | 489 kts | 39° |
| 2026-05-08 01:15 | -14.26307 | -46.59185 | 32356 ft | 490 kts | 39° |
| 2026-05-08 01:15 | -14.23611 | -46.57029 | 32628 ft | 489 kts | 39° |
| 2026-05-08 01:15 | -14.20922 | -46.54880 | 32902 ft | 489 kts | 39° |
| 2026-05-08 01:15 | -14.18230 | -46.52733 | 33149 ft | 490 kts | 38° |
| 2026-05-08 01:16 | -14.15520 | -46.50576 | 33393 ft | 490 kts | 38° |
| 2026-05-08 01:16 | -14.12818 | -46.48427 | 33651 ft | 490 kts | 38° |
| 2026-05-08 01:16 | -14.10121 | -46.46282 | 33936 ft | 489 kts | 38° |
| 2026-05-08 01:16 | -14.07424 | -46.44137 | 34159 ft | 490 kts | 38° |
| 2026-05-08 01:17 | -14.04728 | -46.41993 | 34362 ft | 490 kts | 38° |
| 2026-05-08 01:17 | -14.02057 | -46.39870 | 34590 ft | 489 kts | 38° |
| 2026-05-08 01:17 | -13.99366 | -46.37730 | 34829 ft | 489 kts | 38° |
| 2026-05-08 01:17 | -13.96665 | -46.35584 | 35036 ft | 489 kts | 38° |
| 2026-05-08 01:18 | -13.93970 | -46.33442 | 35240 ft | 489 kts | 38° |
| 2026-05-08 01:18 | -13.91276 | -46.31302 | 35461 ft | 488 kts | 38° |
| 2026-05-08 01:18 | -13.88590 | -46.29169 | 35677 ft | 488 kts | 38° |
| 2026-05-08 01:18 | -13.85907 | -46.27039 | 35877 ft | 487 kts | 38° |
| 2026-05-08 01:19 | -13.83219 | -46.24906 | 36075 ft | 487 kts | 38° |
| 2026-05-08 01:19 | -13.80527 | -46.22770 | 36257 ft | 487 kts | 38° |
| 2026-05-08 01:19 | -13.77879 | -46.20669 | 36449 ft | 487 kts | 38° |
| 2026-05-08 01:19 | -13.75195 | -46.18541 | 36654 ft | 486 kts | 38° |
| 2026-05-08 01:20 | -13.72521 | -46.16422 | 36842 ft | 486 kts | 38° |
| 2026-05-08 01:20 | -13.69842 | -46.14299 | 37012 ft | 486 kts | 38° |
| 2026-05-08 01:20 | -13.67149 | -46.12166 | 37016 ft | 489 kts | 38° |
| 2026-05-08 01:21 | -13.61772 | -46.07908 | 37038 ft | 487 kts | 38° |
| 2026-05-08 01:21 | -13.56427 | -46.03678 | 37027 ft | 483 kts | 38° |
| 2026-05-08 01:22 | -13.51112 | -45.99474 | 37040 ft | 480 kts | 38° |
| 2026-05-08 01:22 | -13.45825 | -45.95294 | 37034 ft | 478 kts | 38° |
| 2026-05-08 01:23 | -13.40587 | -45.91156 | 37040 ft | 478 kts | 38° |
| 2026-05-08 01:23 | -13.35317 | -45.86994 | 37045 ft | 478 kts | 38° |
| 2026-05-08 01:24 | -13.30025 | -45.82818 | 37043 ft | 480 kts | 38° |
| 2026-05-08 01:24 | -13.24719 | -45.78632 | 37041 ft | 482 kts | 38° |
| 2026-05-08 01:25 | -13.19393 | -45.74433 | 37038 ft | 483 kts | 38° |
| 2026-05-08 01:25 | -13.14077 | -45.70244 | 37037 ft | 485 kts | 38° |
| 2026-05-08 01:26 | -13.08716 | -45.66021 | 37036 ft | 486 kts | 38° |
| 2026-05-08 01:26 | -13.03336 | -45.61785 | 37031 ft | 487 kts | 38° |
| 2026-05-08 01:27 | -12.97957 | -45.57548 | 37028 ft | 487 kts | 38° |
| 2026-05-08 01:27 | -12.92614 | -45.53342 | 37027 ft | 487 kts | 38° |
| 2026-05-08 01:28 | -12.87251 | -45.49122 | 37027 ft | 485 kts | 38° |
| 2026-05-08 01:28 | -12.81896 | -45.44910 | 37021 ft | 484 kts | 38° |
| 2026-05-08 01:29 | -12.76550 | -45.40708 | 37018 ft | 483 kts | 38° |
| 2026-05-08 01:29 | -12.71226 | -45.36525 | 37022 ft | 481 kts | 38° |
| 2026-05-08 01:30 | -12.65955 | -45.32386 | 37022 ft | 480 kts | 38° |
| 2026-05-08 01:30 | -12.60656 | -45.28227 | 37024 ft | 479 kts | 38° |
| 2026-05-08 01:31 | -12.55366 | -45.24078 | 37019 ft | 478 kts | 38° |
| 2026-05-08 01:31 | -12.50080 | -45.19940 | 37019 ft | 478 kts | 38° |
| 2026-05-08 01:32 | -12.44794 | -45.15804 | 37020 ft | 478 kts | 38° |
| 2026-05-08 01:32 | -12.39498 | -45.11660 | 37021 ft | 479 kts | 38° |
| 2026-05-08 01:33 | -12.34206 | -45.07521 | 37015 ft | 479 kts | 38° |
| 2026-05-08 01:33 | -12.28899 | -45.03373 | 37009 ft | 480 kts | 38° |
| 2026-05-08 01:34 | -12.23617 | -44.99245 | 37018 ft | 481 kts | 38° |
| 2026-05-08 01:34 | -12.19191 | -44.95789 | 37006 ft | 481 kts | 38° |
| 2026-05-08 01:35 | -12.12952 | -44.90919 | 37001 ft | 482 kts | 38° |
| 2026-05-08 01:35 | -12.07654 | -44.86786 | 37002 ft | 482 kts | 38° |
| 2026-05-08 01:36 | -12.03186 | -44.83302 | 37000 ft | 482 kts | 38° |
| 2026-05-08 01:36 | -11.97847 | -44.79142 | 36997 ft | 482 kts | 38° |
| 2026-05-08 01:37 | -11.92513 | -44.74987 | 36991 ft | 482 kts | 38° |
| 2026-05-08 01:37 | -11.87212 | -44.70859 | 36990 ft | 481 kts | 38° |
| 2026-05-08 01:38 | -11.81882 | -44.66712 | 36992 ft | 481 kts | 38° |
| 2026-05-08 01:38 | -11.76557 | -44.62570 | 36988 ft | 480 kts | 38° |
| 2026-05-08 01:39 | -11.71242 | -44.58438 | 36984 ft | 480 kts | 38° |
| 2026-05-08 01:39 | -11.65930 | -44.54310 | 36984 ft | 479 kts | 38° |
| 2026-05-08 01:40 | -11.60651 | -44.50210 | 36986 ft | 479 kts | 38° |
| 2026-05-08 01:40 | -11.55348 | -44.46093 | 36986 ft | 479 kts | 38° |
| 2026-05-08 01:41 | -11.50037 | -44.41972 | 36986 ft | 479 kts | 38° |
| 2026-05-08 01:41 | -11.44732 | -44.37859 | 36991 ft | 479 kts | 38° |
| 2026-05-08 01:42 | -11.39432 | -44.33750 | 36989 ft | 479 kts | 38° |
| 2026-05-08 01:42 | -11.34125 | -44.29638 | 36992 ft | 479 kts | 37° |
| 2026-05-08 01:43 | -11.28816 | -44.25526 | 36987 ft | 479 kts | 37° |
| 2026-05-08 01:43 | -11.23541 | -44.21443 | 36989 ft | 479 kts | 37° |
| 2026-05-08 01:44 | -11.18227 | -44.17330 | 36988 ft | 479 kts | 37° |
| 2026-05-08 01:44 | -11.12916 | -44.13225 | 36990 ft | 479 kts | 37° |
| 2026-05-08 01:45 | -11.07587 | -44.09124 | 36996 ft | 479 kts | 37° |
| 2026-05-08 01:45 | -11.02258 | -44.05027 | 36990 ft | 480 kts | 37° |
| 2026-05-08 01:46 | -10.96940 | -44.00937 | 37000 ft | 480 kts | 37° |
| 2026-05-08 01:46 | -10.91617 | -43.96844 | 36996 ft | 480 kts | 37° |
| 2026-05-08 01:47 | -10.86278 | -43.92740 | 37000 ft | 480 kts | 37° |
| 2026-05-08 01:47 | -10.80975 | -43.88666 | 36998 ft | 480 kts | 37° |
| 2026-05-08 01:48 | -10.72990 | -43.82534 | 37000 ft | 479 kts | 37° |
| 2026-05-08 01:48 | -10.67673 | -43.78443 | 37001 ft | 479 kts | 37° |